createdAt,value
2024-03-03T00:02:24.655Z,6.30
2024-03-03T00:05:26.462Z,6.32
2024-03-03T00:08:28.493Z,6.23
2024-03-03T00:11:31.727Z,6.17
2024-03-03T00:14:35.209Z,6.17
2024-03-03T00:17:37.546Z,6.13
2024-03-03T00:20:40.872Z,5.98
2024-03-03T00:23:42.768Z,5.95
2024-03-03T00:26:45.722Z,5.96
2024-03-03T00:29:47.346Z,5.92
2024-03-03T00:32:49.048Z,5.93
2024-03-03T00:35:51.038Z,5.90
2024-03-03T00:38:53.505Z,5.88
2024-03-03T00:41:56.553Z,5.89
2024-03-03T00:44:58.160Z,5.85
2024-03-03T00:47:59.777Z,5.85
2024-03-03T00:51:01.485Z,5.65
2024-03-03T00:54:03.212Z,5.58
2024-03-03T00:57:07.371Z,5.59
2024-03-03T01:00:10.338Z,5.73
2024-03-03T01:03:12.175Z,5.74
2024-03-03T01:06:14.167Z,5.81
2024-03-03T01:09:15.868Z,5.85
2024-03-03T01:12:19.290Z,5.76
2024-03-03T01:15:20.954Z,5.72
2024-03-03T01:18:22.716Z,5.61
2024-03-03T01:21:24.272Z,5.57
2024-03-03T01:24:26.249Z,5.62
2024-03-03T01:27:29.430Z,5.63
2024-03-03T01:30:31.097Z,5.71
2024-03-03T01:33:32.846Z,5.77
2024-03-03T01:36:34.836Z,5.80
2024-03-03T01:39:39.580Z,5.77
2024-03-03T01:42:43.181Z,5.82
2024-03-03T01:45:44.993Z,5.80
2024-03-03T01:48:47.446Z,5.81
2024-03-03T01:51:49.319Z,5.80
2024-03-03T01:54:51.097Z,5.81
2024-03-03T01:57:57.966Z,5.80
2024-03-03T02:01:01.874Z,5.82
2024-03-03T02:04:03.885Z,5.78
2024-03-03T02:07:07.696Z,5.80
2024-03-03T02:10:10.621Z,5.85
2024-03-03T02:13:13.816Z,5.83
2024-03-03T02:16:15.898Z,5.82
2024-03-03T02:19:18.758Z,5.88
2024-03-03T02:22:21.954Z,5.85
2024-03-03T02:25:23.772Z,5.85
2024-03-03T02:28:26.500Z,5.85
2024-03-03T02:31:28.438Z,5.85
2024-03-03T02:34:30.312Z,5.80
2024-03-03T02:37:33.401Z,5.80
2024-03-03T02:40:35.225Z,5.66
2024-03-03T02:43:36.993Z,5.56
2024-03-03T02:46:38.587Z,5.58
2024-03-03T02:49:40.266Z,5.64
2024-03-03T02:52:43.429Z,5.72
2024-03-03T02:55:45.113Z,5.73
2024-03-03T02:58:46.861Z,5.67
2024-03-03T03:01:51.267Z,5.68
2024-03-03T03:04:53.362Z,5.67
2024-03-03T03:07:58.732Z,5.65
2024-03-03T03:11:00.447Z,5.61
2024-03-03T03:14:02.357Z,5.65
2024-03-03T03:17:04.352Z,5.62
2024-03-03T03:20:06.571Z,5.62
2024-03-03T03:23:09.619Z,5.61
2024-03-03T03:26:11.842Z,5.57
2024-03-03T03:29:13.470Z,5.52
2024-03-03T03:32:15.257Z,5.44
2024-03-03T03:35:16.853Z,5.44
2024-03-03T03:38:19.858Z,5.46
2024-03-03T03:41:21.433Z,5.45
2024-03-03T03:44:23.050Z,5.43
2024-03-03T03:47:24.627Z,5.38
2024-03-03T03:50:26.224Z,5.36
2024-03-03T03:53:29.397Z,5.35
2024-03-03T03:56:31.359Z,5.36
2024-03-03T03:59:33.150Z,5.38
2024-03-03T04:02:34.785Z,5.37
2024-03-03T04:05:36.460Z,5.42
2024-03-03T04:08:40.719Z,5.45
2024-03-03T04:11:42.359Z,5.47
2024-03-03T04:14:44.018Z,5.47
2024-03-03T04:17:45.722Z,5.49
2024-03-03T04:20:47.254Z,5.49
2024-03-03T04:23:50.167Z,5.48
2024-03-03T04:26:51.806Z,5.49
2024-03-03T04:29:53.433Z,5.49
2024-03-03T04:32:55.106Z,5.46
2024-03-03T04:35:56.932Z,5.43
2024-03-03T04:39:00.076Z,5.38
2024-03-03T04:42:03.506Z,5.29
2024-03-03T04:45:05.761Z,5.23
2024-03-03T04:48:07.893Z,5.20
2024-03-03T04:51:09.535Z,5.18
2024-03-03T04:54:12.521Z,5.18
2024-03-03T04:57:17.185Z,5.17
2024-03-03T05:00:18.976Z,5.16
2024-03-03T05:03:20.562Z,5.17
2024-03-03T05:06:22.229Z,5.18
2024-03-03T05:09:25.441Z,5.21
2024-03-03T05:12:27.092Z,5.23
2024-03-03T05:15:28.750Z,5.26
2024-03-03T05:18:30.434Z,5.32
2024-03-03T05:21:32.057Z,5.35
2024-03-03T05:24:35.259Z,5.36
2024-03-03T05:27:37.381Z,5.33
2024-03-03T05:30:39.618Z,5.30
2024-03-03T05:33:41.240Z,5.25
2024-03-03T05:36:43.581Z,5.27
2024-03-03T05:39:46.612Z,5.30
2024-03-03T05:42:48.258Z,5.27
2024-03-03T05:45:49.858Z,5.28
2024-03-03T05:48:51.559Z,5.27
2024-03-03T05:51:53.259Z,5.26
2024-03-03T05:54:56.299Z,5.19
2024-03-03T05:57:58.084Z,5.16
2024-03-03T06:00:59.820Z,5.17
2024-03-03T06:04:01.523Z,5.20
2024-03-03T06:07:03.573Z,5.23
2024-03-03T06:10:07.242Z,5.22
2024-03-03T06:13:09.269Z,5.22
2024-03-03T06:16:11.228Z,5.22
2024-03-03T06:19:12.920Z,5.22
2024-03-03T06:22:14.614Z,5.20
2024-03-03T06:25:17.614Z,5.22
2024-03-03T06:28:19.318Z,5.22
2024-03-03T06:31:21.061Z,5.24
2024-03-03T06:34:22.758Z,5.29
2024-03-03T06:37:24.438Z,5.34
2024-03-03T06:40:27.466Z,5.39
2024-03-03T06:43:29.176Z,5.48
2024-03-03T06:46:30.896Z,5.57
2024-03-03T06:49:32.582Z,5.63
2024-03-03T06:52:34.232Z,5.69
2024-03-03T06:55:38.232Z,5.74
2024-03-03T06:58:39.870Z,5.78
2024-03-03T07:01:41.595Z,5.81
2024-03-03T07:04:43.334Z,5.86
2024-03-03T07:07:44.942Z,5.94
2024-03-03T07:10:47.932Z,5.98
2024-03-03T07:13:49.518Z,6.06
2024-03-03T07:16:51.736Z,6.16
2024-03-03T07:19:53.516Z,6.28
2024-03-03T07:22:55.131Z,6.38
2024-03-03T07:25:58.190Z,6.51
2024-03-03T07:29:01.020Z,6.60
2024-03-03T07:32:03.843Z,6.60
2024-03-03T07:35:05.885Z,6.67
2024-03-03T07:38:07.469Z,6.75
2024-03-03T07:41:10.370Z,6.84
2024-03-03T07:44:12.128Z,6.94
2024-03-03T07:47:13.696Z,7.01
2024-03-03T07:50:15.357Z,7.10
2024-03-03T07:53:17.858Z,7.17
2024-03-03T07:56:21.774Z,7.27
2024-03-03T07:59:23.385Z,7.39
2024-03-03T08:02:25.034Z,7.52
2024-03-03T08:05:26.748Z,7.56
2024-03-03T08:08:28.341Z,7.66
2024-03-03T08:11:33.597Z,7.72
2024-03-03T08:14:35.271Z,7.79
2024-03-03T08:17:36.894Z,7.94
2024-03-03T08:20:38.576Z,8.05
2024-03-03T08:23:40.409Z,8.17
2024-03-03T08:26:47.451Z,8.29
2024-03-03T08:29:49.252Z,8.38
2024-03-03T08:32:50.844Z,8.56
2024-03-03T08:35:52.438Z,8.71
2024-03-03T08:38:54.020Z,8.91
2024-03-03T08:41:56.994Z,9.06
2024-03-03T08:44:58.733Z,9.16
2024-03-03T08:48:00.343Z,9.26
2024-03-03T08:51:06.981Z,9.30
2024-03-03T08:54:08.567Z,9.50
2024-03-03T08:57:11.605Z,9.50
2024-03-03T09:00:16.721Z,9.69
2024-03-03T09:03:19.182Z,9.76
2024-03-03T09:06:21.105Z,9.93
2024-03-03T09:09:22.785Z,10.12
2024-03-03T09:12:25.740Z,10.17
2024-03-03T09:15:27.314Z,10.38
2024-03-03T09:18:28.901Z,10.47
2024-03-03T09:21:30.694Z,10.56
2024-03-03T09:24:32.434Z,10.62
2024-03-03T09:27:36.389Z,10.72
2024-03-03T09:30:38.089Z,10.83
2024-03-03T09:33:40.305Z,11.00
2024-03-03T09:36:42.671Z,11.03
2024-03-03T09:39:44.425Z,11.30
2024-03-03T09:42:47.754Z,11.27
2024-03-03T09:45:51.115Z,11.33
2024-03-03T09:48:53.390Z,11.42
2024-03-03T09:51:56.278Z,11.42
2024-03-03T09:54:59.079Z,11.31
2024-03-03T09:58:02.248Z,11.32
2024-03-03T10:01:06.348Z,11.55
2024-03-03T10:04:08.516Z,11.77
2024-03-03T10:07:10.695Z,11.80
2024-03-03T10:10:16.338Z,11.77
2024-03-03T10:13:21.111Z,11.56
2024-03-03T10:16:23.830Z,11.70
2024-03-03T10:19:28.304Z,11.89
2024-03-03T10:22:30.191Z,11.87
2024-03-03T10:25:32.225Z,11.93
2024-03-03T10:28:35.478Z,11.78
2024-03-03T10:31:37.088Z,11.72
2024-03-03T10:34:38.792Z,11.63
2024-03-03T10:37:52.738Z,11.43
2024-03-03T10:40:54.736Z,11.46
2024-03-03T10:43:58.873Z,11.59
2024-03-03T10:47:00.568Z,11.42
2024-03-03T10:50:03.242Z,11.22
2024-03-03T10:53:12.505Z,11.29
2024-03-03T10:56:14.879Z,11.57
2024-03-03T10:59:18.121Z,11.67
2024-03-03T11:02:20.094Z,11.73
2024-03-03T11:05:22.085Z,11.75
2024-03-03T11:08:24.536Z,11.89
2024-03-03T11:11:28.042Z,11.65
2024-03-03T11:14:36.815Z,11.72
2024-03-03T11:17:41.004Z,11.70
2024-03-03T11:20:47.904Z,11.64
2024-03-03T11:23:53.136Z,11.70
2024-03-03T11:26:57.989Z,11.60
2024-03-03T11:30:01.045Z,11.68
2024-03-03T11:33:03.541Z,11.87
2024-03-03T11:36:05.841Z,12.04
2024-03-03T11:39:10.597Z,12.55
2024-03-03T11:42:22.429Z,12.98
2024-03-03T11:45:38.938Z,13.42
2024-03-03T11:48:45.887Z,13.43
2024-03-03T11:51:47.526Z,12.97
2024-03-03T11:54:53.495Z,12.95
2024-03-03T11:57:56.065Z,13.44
2024-03-03T12:01:09.365Z,13.70
2024-03-03T12:04:12.923Z,13.90
2024-03-03T12:07:15.914Z,13.89
2024-03-03T12:10:18.173Z,14.02
2024-03-03T12:13:19.951Z,14.25
2024-03-03T12:16:21.661Z,14.28
2024-03-03T12:19:24.937Z,14.17
2024-03-03T12:22:27.049Z,14.09
2024-03-03T12:25:29.529Z,14.32
2024-03-03T12:28:31.620Z,14.04
2024-03-03T12:31:33.591Z,13.97
2024-03-03T12:34:36.632Z,14.28
2024-03-03T12:37:39.174Z,14.32
2024-03-03T12:40:40.841Z,14.36
2024-03-03T12:43:42.610Z,14.38
2024-03-03T12:46:44.463Z,14.35
2024-03-03T12:49:47.480Z,14.41
2024-03-03T12:52:49.398Z,14.33
2024-03-03T12:55:51.583Z,14.44
2024-03-03T12:58:53.193Z,14.31
2024-03-03T13:01:55.013Z,14.53
2024-03-03T13:04:59.108Z,14.49
2024-03-03T13:08:01.139Z,14.52
2024-03-03T13:11:03.301Z,14.48
2024-03-03T13:14:05.091Z,14.33
2024-03-03T13:17:06.882Z,14.31
2024-03-03T13:20:13.653Z,14.10
2024-03-03T13:23:17.375Z,14.10
2024-03-03T13:26:18.984Z,14.15
2024-03-03T13:29:20.618Z,14.28
2024-03-03T13:32:22.322Z,14.26
2024-03-03T13:35:25.319Z,14.25
2024-03-03T13:38:27.244Z,14.23
2024-03-03T13:41:28.898Z,14.41
2024-03-03T13:44:30.651Z,14.53
2024-03-03T13:47:32.428Z,14.47
2024-03-03T13:50:35.365Z,14.55
2024-03-03T13:53:37.044Z,14.47
2024-03-03T13:56:40.229Z,14.45
2024-03-03T13:59:43.268Z,14.32
2024-03-03T14:02:45.446Z,14.17
2024-03-03T14:05:49.140Z,14.25
2024-03-03T14:08:50.882Z,13.96
2024-03-03T14:11:52.501Z,13.89
2024-03-03T14:14:54.241Z,14.12
2024-03-03T14:17:55.933Z,14.04
2024-03-03T14:20:59.309Z,13.88
2024-03-03T14:24:00.882Z,13.77
2024-03-03T14:27:02.540Z,13.77
2024-03-03T14:30:04.646Z,13.99
2024-03-03T14:33:06.572Z,14.03
2024-03-03T14:36:10.259Z,14.01
2024-03-03T14:39:12.352Z,13.92
2024-03-03T14:42:14.142Z,13.90
2024-03-03T14:45:15.744Z,13.97
2024-03-03T14:48:17.587Z,13.86
2024-03-03T14:51:21.664Z,13.93
2024-03-03T14:54:23.261Z,13.79
2024-03-03T14:57:27.583Z,13.89
2024-03-03T15:00:29.433Z,13.89
2024-03-03T15:03:31.143Z,13.78
2024-03-03T15:06:34.285Z,13.71
2024-03-03T15:09:35.864Z,13.70
2024-03-03T15:12:37.500Z,13.58
2024-03-03T15:15:39.166Z,13.45
2024-03-03T15:18:40.809Z,13.26
2024-03-03T15:21:43.840Z,13.19
2024-03-03T15:24:48.568Z,13.21
2024-03-03T15:27:50.717Z,13.21
2024-03-03T15:30:52.358Z,13.15
2024-03-03T15:33:55.105Z,13.05
2024-03-03T15:36:59.088Z,12.97
2024-03-03T15:40:00.814Z,12.92
2024-03-03T15:43:02.672Z,12.88
2024-03-03T15:46:04.510Z,12.81
2024-03-03T15:49:06.624Z,12.68
2024-03-03T15:52:09.577Z,12.71
2024-03-03T15:55:12.640Z,12.63
2024-03-03T15:58:14.433Z,12.56
2024-03-03T16:01:16.217Z,12.46
2024-03-03T16:04:18.145Z,12.36
2024-03-03T16:07:22.047Z,12.38
2024-03-03T16:10:23.703Z,12.39
2024-03-03T16:13:25.331Z,12.35
2024-03-03T16:16:28.241Z,12.36
2024-03-03T16:19:30.264Z,12.79
2024-03-03T16:22:33.296Z,13.71
2024-03-03T16:25:36.478Z,13.81
2024-03-03T16:28:38.298Z,13.35
2024-03-03T16:31:40.257Z,12.60
2024-03-03T16:34:42.582Z,11.93
2024-03-03T16:37:46.209Z,11.63
2024-03-03T16:40:47.941Z,11.30
2024-03-03T16:43:49.824Z,11.14
2024-03-03T16:46:51.584Z,11.00
2024-03-03T16:49:53.306Z,10.85
2024-03-03T16:52:56.860Z,10.75
2024-03-03T16:55:59.131Z,10.70
2024-03-03T16:59:01.035Z,10.59
2024-03-03T17:02:02.743Z,10.52
2024-03-03T17:05:04.894Z,10.41
2024-03-03T17:08:08.269Z,10.30
2024-03-03T17:11:09.877Z,10.21
2024-03-03T17:14:11.537Z,10.18
2024-03-03T17:17:13.190Z,10.11
2024-03-03T17:20:15.072Z,10.08
2024-03-03T17:23:18.686Z,10.03
2024-03-03T17:26:20.399Z,9.96
2024-03-03T17:29:22.146Z,9.93
2024-03-03T17:32:23.908Z,9.82
2024-03-03T17:35:25.689Z,9.82
2024-03-03T17:38:30.044Z,9.79
2024-03-03T17:41:31.655Z,9.75
2024-03-03T17:44:33.240Z,9.69
2024-03-03T17:47:35.044Z,9.64
2024-03-03T17:50:36.727Z,9.60
2024-03-03T17:53:39.773Z,9.56
2024-03-03T17:56:47.511Z,9.54
2024-03-03T17:59:49.166Z,9.46
2024-03-03T18:02:50.817Z,9.43
2024-03-03T18:05:52.470Z,9.41
2024-03-03T18:08:55.365Z,9.41
2024-03-03T18:11:57.211Z,9.41
2024-03-03T18:14:59.167Z,9.37
2024-03-03T18:18:00.881Z,9.37
2024-03-03T18:21:02.901Z,9.37
2024-03-03T18:24:07.101Z,9.35
2024-03-03T18:27:08.842Z,9.37
2024-03-03T18:30:11.165Z,9.32
2024-03-03T18:33:12.933Z,9.26
2024-03-03T18:36:17.619Z,9.24
2024-03-03T18:39:24.228Z,9.22
2024-03-03T18:42:26.193Z,9.14
2024-03-03T18:45:27.887Z,9.12
2024-03-03T18:48:30.745Z,9.11
2024-03-03T18:51:34.591Z,9.08
2024-03-03T18:54:37.661Z,9.06
2024-03-03T18:57:39.350Z,9.03
2024-03-03T19:00:41.697Z,8.99
2024-03-03T19:03:44.237Z,8.95
2024-03-03T19:06:45.979Z,8.88
2024-03-03T19:09:50.007Z,8.84
2024-03-03T19:12:51.964Z,8.80
2024-03-03T19:15:54.239Z,8.75
2024-03-03T19:18:55.966Z,8.71
2024-03-03T19:21:57.709Z,8.72
2024-03-03T19:25:00.715Z,8.70
2024-03-03T19:28:02.662Z,8.68
2024-03-03T19:31:04.889Z,8.67
2024-03-03T19:34:06.701Z,8.64
2024-03-03T19:37:09.882Z,8.62
2024-03-03T19:40:13.957Z,8.60
2024-03-03T19:43:16.148Z,8.58
2024-03-03T19:46:18.111Z,8.55
2024-03-03T19:49:20.030Z,8.53
2024-03-03T19:52:21.854Z,8.52
2024-03-03T19:55:24.884Z,8.49
2024-03-03T19:58:26.964Z,8.45
2024-03-03T20:01:28.682Z,8.44
2024-03-03T20:04:30.298Z,8.43
2024-03-03T20:07:32.019Z,8.39
2024-03-03T20:10:35.060Z,8.37
2024-03-03T20:13:36.813Z,8.34
2024-03-03T20:16:38.687Z,8.33
2024-03-03T20:19:40.952Z,8.29
2024-03-03T20:22:44.784Z,8.27
2024-03-03T20:25:47.714Z,8.23
2024-03-03T20:28:49.613Z,8.21
2024-03-03T20:31:51.396Z,8.20
2024-03-03T20:34:56.823Z,8.17
2024-03-03T20:37:58.414Z,8.15
2024-03-03T20:41:02.519Z,8.13
2024-03-03T20:44:04.275Z,8.09
2024-03-03T20:47:08.092Z,8.06
2024-03-03T20:50:10.249Z,8.00
2024-03-03T20:53:12.465Z,7.98
2024-03-03T20:56:15.433Z,7.95
2024-03-03T20:59:16.992Z,7.88
2024-03-03T21:02:20.303Z,7.80
2024-03-03T21:05:22.693Z,7.71
2024-03-03T21:08:24.244Z,7.66
2024-03-03T21:11:27.398Z,7.62
2024-03-03T21:14:29.863Z,7.57
2024-03-03T21:17:31.699Z,7.54
2024-03-03T21:20:33.313Z,7.56
2024-03-03T21:23:34.950Z,7.57
2024-03-03T21:26:43.064Z,7.61
2024-03-03T21:29:44.613Z,7.61
2024-03-03T21:32:46.377Z,7.62
2024-03-03T21:35:48.446Z,7.61
2024-03-03T21:38:49.923Z,7.62
2024-03-03T21:41:52.939Z,7.61
2024-03-03T21:44:54.559Z,7.60
2024-03-03T21:47:56.256Z,7.61
2024-03-03T21:50:57.757Z,7.57
2024-03-03T21:53:59.294Z,7.57
2024-03-03T21:57:02.232Z,7.57
2024-03-03T22:00:04.045Z,7.61
2024-03-03T22:03:14.017Z,7.62
2024-03-03T22:06:15.647Z,7.65
2024-03-03T22:09:17.314Z,7.67
2024-03-03T22:12:20.208Z,7.64
2024-03-03T22:15:21.913Z,7.57
2024-03-03T22:18:23.404Z,7.49
2024-03-03T22:21:27.485Z,7.44
2024-03-03T22:24:29.368Z,7.40
2024-03-03T22:27:32.269Z,7.35
2024-03-03T22:30:33.832Z,7.30
2024-03-03T22:33:37.465Z,7.27
2024-03-03T22:36:39.054Z,7.23
2024-03-03T22:39:40.823Z,7.20
2024-03-03T22:42:43.972Z,7.20
2024-03-03T22:45:45.639Z,7.18
2024-03-03T22:48:47.260Z,7.18
2024-03-03T22:51:50.089Z,7.15
2024-03-03T22:54:51.743Z,7.15
2024-03-03T22:57:54.725Z,7.13
2024-03-03T23:00:56.467Z,7.12
2024-03-03T23:03:58.284Z,7.13
2024-03-03T23:07:00.049Z,7.15
2024-03-03T23:10:02.032Z,7.17
2024-03-03T23:13:05.082Z,7.17
2024-03-03T23:16:07.378Z,7.17
2024-03-03T23:19:11.675Z,7.21
2024-03-03T23:22:13.451Z,7.23
2024-03-03T23:25:16.166Z,7.21
2024-03-03T23:28:19.092Z,7.20
2024-03-03T23:31:20.703Z,7.19
2024-03-03T23:34:22.462Z,7.19
2024-03-03T23:37:24.083Z,7.16
2024-03-03T23:40:25.754Z,7.18
2024-03-03T23:43:28.800Z,7.20
2024-03-03T23:46:30.500Z,7.23
2024-03-03T23:49:32.253Z,7.23
2024-03-03T23:52:34.355Z,7.19
2024-03-03T23:55:36.162Z,7.15
2024-03-03T23:58:39.158Z,7.13
